Terminal Aerodrome Forecast
Issued by NWS

Home | Current Version | Previous Version | Text Only | Print | Product List | Glossary On
Versions: 1 2 3 4 5 6 7 8 9 10 11 12 13 14 15
000
FTUS41 KPBZ 042324
TAFFKL
TAF
KFKL 042324Z 0500/0524 29008KT 6SM -SHRA BKN060
     FM050200 25007KT 4SM BR OVC025
     FM051000 VRB04KT 3SM -SHRA BR OVC009
     FM051800 18005KT 6SM BR VCSH OVC015
      AMD LTD TO CLD VIS AND WIND=

USA.gov is the U.S. government's official web portal to all federal, state and local government web resources and services.